Time;durP1;ratioP1;P1;durP2;ratioP2;P2;SDS_P1;SDS_P2;PMS_P1;PMS_P2;Temp;Humidity;BMP_temperature;BMP_pressure;BME280_temperature;BME280_humidity;BME280_pressure;Samples;Min_cycle;Max_cycle;Signal;HPM_P1;HPM_P2
2023/12/19 00:01:58;;;;;;;;;;;4.20;99.90;;;;;;5056148;28;19909;-80
2023/12/19 00:04:24;;;;;;;;;;;4.20;99.90;;;;;;5087410;28;19912;-80
2023/12/19 00:06:49;;;;;;;;;;;4.20;99.90;;;;;;5073881;28;19909;-80
2023/12/19 00:09:15;;;;;;;;;;;4.20;99.90;;;;;;5055984;28;20444;-80
2023/12/19 00:11:40;;;;;;;;;;;4.20;99.90;;;;;;5065314;28;20010;-80
2023/12/19 00:14:07;;;;;;;;;;;4.20;99.90;;;;;;5073901;28;19908;-80
2023/12/19 00:16:32;;;;;;;;;;;4.20;99.90;;;;;;5055971;28;19931;-81
2023/12/19 00:18:58;;;;;;;;;;;4.20;99.90;;;;;;5075337;28;19913;-80
2023/12/19 00:21:23;;;;;;;;;;;4.30;99.90;;;;;;5073750;28;19987;-81
2023/12/19 00:23:49;;;;;;;;;;;4.30;99.90;;;;;;5070855;28;19912;-78
2023/12/19 00:26:15;;;;;;;;;;;4.30;99.90;;;;;;5065267;28;20291;-78
2023/12/19 00:28:41;;;;;;;;;;;4.30;99.90;;;;;;5035888;28;19908;-81
2023/12/19 00:31:07;;;;;;;;;;;4.30;99.90;;;;;;5054375;28;19921;-80
2023/12/19 00:33:32;;;;;;;;;;;4.30;99.90;;;;;;5048747;28;19948;-80
2023/12/19 00:35:58;;;;;;;;;;;4.30;99.90;;;;;;5068434;28;19908;-80
2023/12/19 00:38:23;;;;;;;;;;;4.40;99.90;;;;;;5093317;28;19966;-80
2023/12/19 00:40:49;;;;;;;;;;;4.30;99.90;;;;;;5087318;28;19912;-80
2023/12/19 00:43:14;;;;;;;;;;;4.40;99.90;;;;;;5093587;28;19912;-78
2023/12/19 00:45:40;;;;;;;;;;;4.40;99.90;;;;;;5074639;28;19981;-78
2023/12/19 00:48:06;;;;;;;;;;;4.30;99.90;;;;;;5090707;28;19988;-80
2023/12/19 00:50:31;;;;;;;;;;;4.30;99.90;;;;;;5076079;28;19933;-80
2023/12/19 00:52:57;;;;;;;;;;;4.40;99.90;;;;;;5093744;28;19909;-80
2023/12/19 00:55:22;;;;;;;;;;;4.40;99.90;;;;;;5100888;28;19912;-78
2023/12/19 00:57:48;;;;;;;;;;;4.40;99.90;;;;;;5073349;28;20390;-80
2023/12/19 01:00:14;;;;;;;;;;;4.40;99.90;;;;;;5054680;28;19915;-80
2023/12/19 01:02:39;;;;;;;;;;;4.40;99.90;;;;;;5074998;28;20374;-80
2023/12/19 01:05:05;;;;;;;;;;;4.40;99.90;;;;;;5054838;28;19920;-78
2023/12/19 01:07:30;;;;;;;;;;;4.40;99.90;;;;;;5058653;28;19897;-80
2023/12/19 01:09:56;;;;;;;;;;;4.40;99.90;;;;;;5055149;28;19958;-80
2023/12/19 01:12:21;;;;;;;;;;;4.40;99.90;;;;;;5055347;28;19909;-80
2023/12/19 01:14:47;;;;;;;;;;;4.40;99.90;;;;;;5079293;28;19912;-80
2023/12/19 01:17:13;;;;;;;;;;;4.40;99.90;;;;;;5051858;28;19917;-80
2023/12/19 01:19:38;;;;;;;;;;;4.40;99.90;;;;;;5052025;28;19932;-78
2023/12/19 01:22:04;;;;;;;;;;;4.50;99.90;;;;;;5060702;28;19935;-78
2023/12/19 01:24:30;;;;;;;;;;;4.40;99.90;;;;;;5047799;28;19917;-80
2023/12/19 01:26:55;;;;;;;;;;;4.50;99.90;;;;;;5044117;28;20271;-80
2023/12/19 01:29:21;;;;;;;;;;;4.50;99.90;;;;;;5042338;28;19913;-80
2023/12/19 01:31:46;;;;;;;;;;;4.50;99.90;;;;;;5034267;28;19921;-80
2023/12/19 01:34:12;;;;;;;;;;;4.50;99.90;;;;;;5042743;28;19975;-81
2023/12/19 01:36:45;;;;;;;;;;;4.50;99.90;;;;;;5066389;28;19913;-80
2023/12/19 01:39:11;;;;;;;;;;;4.50;99.90;;;;;;5051983;28;19912;-80
2023/12/19 01:41:37;;;;;;;;;;;4.40;99.90;;;;;;5056869;28;19939;-80
2023/12/19 01:44:03;;;;;;;;;;;4.40;99.90;;;;;;5058265;28;20299;-80
2023/12/19 01:46:28;;;;;;;;;;;4.40;99.90;;;;;;5055297;28;19912;-78
2023/12/19 01:48:54;;;;;;;;;;;4.40;99.90;;;;;;5058404;28;20318;-77
2023/12/19 01:51:20;;;;;;;;;;;4.50;99.90;;;;;;5055239;28;19916;-81
2023/12/19 01:53:47;;;;;;;;;;;4.40;99.90;;;;;;5065762;28;19912;-80
2023/12/19 01:56:14;;;;;;;;;;;4.50;99.90;;;;;;5081656;28;20035;-80
2023/12/19 01:58:40;;;;;;;;;;;4.50;99.90;;;;;;5056624;28;19944;-80
2023/12/19 02:01:05;;;;;;;;;;;4.50;99.90;;;;;;5055795;28;19974;-80
2023/12/19 02:03:32;;;;;;;;;;;4.50;99.90;;;;;;5060835;28;19958;-77
2023/12/19 02:05:57;;;;;;;;;;;4.50;99.90;;;;;;5056105;28;20376;-80
2023/12/19 02:08:23;;;;;;;;;;;4.50;99.90;;;;;;5054842;28;19912;-80
2023/12/19 02:10:48;;;;;;;;;;;4.60;99.90;;;;;;5058143;28;19919;-81
2023/12/19 02:13:14;;;;;;;;;;;4.60;99.90;;;;;;5056445;28;20332;-81
2023/12/19 02:15:40;;;;;;;;;;;4.60;99.90;;;;;;5057816;28;19917;-80
2023/12/19 02:18:14;;;;;;;;;;;4.60;99.90;;;;;;5056349;28;19992;-81
2023/12/19 02:20:40;;;;;;;;;;;4.60;99.90;;;;;;5054739;28;19909;-80
2023/12/19 02:23:05;;;;;;;;;;;4.60;99.90;;;;;;5072533;28;20011;-80
2023/12/19 02:25:31;;;;;;;;;;;4.60;99.90;;;;;;5043341;28;20375;-78
2023/12/19 02:27:59;;;;;;;;;;;4.60;99.90;;;;;;5034827;28;19967;-81
2023/12/19 02:30:25;;;;;;;;;;;4.60;99.90;;;;;;5044174;28;19980;-80
2023/12/19 02:32:50;;;;;;;;;;;4.60;99.90;;;;;;5045984;28;19948;-80
2023/12/19 02:35:16;;;;;;;;;;;4.70;99.90;;;;;;5055776;28;20286;-81
2023/12/19 02:37:41;;;;;;;;;;;4.70;99.90;;;;;;5075846;28;19922;-81
2023/12/19 02:40:09;;;;;;;;;;;4.70;99.90;;;;;;5074298;28;19912;-81
2023/12/19 02:42:39;;;;;;;;;;;4.60;99.90;;;;;;5077703;28;19916;-80
2023/12/19 02:45:05;;;;;;;;;;;4.70;99.90;;;;;;5075744;28;19924;-81
2023/12/19 02:47:30;;;;;;;;;;;4.70;99.90;;;;;;5074306;28;19908;-80
2023/12/19 02:49:56;;;;;;;;;;;4.60;99.90;;;;;;5077051;28;19916;-78
2023/12/19 02:52:21;;;;;;;;;;;4.70;99.90;;;;;;5074274;28;19930;-80
2023/12/19 02:54:47;;;;;;;;;;;4.70;99.90;;;;;;5073080;28;19909;-80
2023/12/19 02:57:12;;;;;;;;;;;4.70;99.90;;;;;;5061975;28;20299;-80
2023/12/19 02:59:38;;;;;;;;;;;4.70;99.90;;;;;;5055135;28;19917;-80
2023/12/19 03:02:03;;;;;;;;;;;4.60;99.90;;;;;;5062832;28;19918;-80
2023/12/19 03:04:29;;;;;;;;;;;4.60;99.90;;;;;;5059790;28;19921;-81
2023/12/19 03:06:54;;;;;;;;;;;4.60;99.90;;;;;;5053082;28;19913;-78
2023/12/19 03:09:20;;;;;;;;;;;4.60;99.90;;;;;;5059432;28;19904;-80
2023/12/19 03:11:59;;;;;;;;;;;4.60;99.90;;;;;;5055513;28;19920;-81
2023/12/19 03:14:25;;;;;;;;;;;4.70;99.90;;;;;;5054063;28;19917;-81
2023/12/19 03:16:50;;;;;;;;;;;4.60;99.90;;;;;;5056958;28;20370;-80
2023/12/19 03:19:16;;;;;;;;;;;4.70;99.90;;;;;;5054821;28;19912;-80
2023/12/19 03:21:41;;;;;;;;;;;4.70;99.90;;;;;;5053493;28;19912;-81
2023/12/19 03:24:06;;;;;;;;;;;4.60;99.90;;;;;;5052960;28;19925;-80
2023/12/19 03:26:32;;;;;;;;;;;4.60;99.90;;;;;;5033500;28;19949;-81
2023/12/19 03:28:57;;;;;;;;;;;4.70;99.90;;;;;;5040197;28;19964;-80
2023/12/19 03:31:23;;;;;;;;;;;4.70;99.90;;;;;;5055183;28;19928;-80
2023/12/19 03:33:50;;;;;;;;;;;4.70;99.90;;;;;;5048280;28;19985;-80
2023/12/19 03:36:16;;;;;;;;;;;4.80;99.90;;;;;;5092926;28;19978;-79
2023/12/19 03:38:42;;;;;;;;;;;4.80;99.90;;;;;;5076408;28;19908;-80
2023/12/19 03:41:07;;;;;;;;;;;4.80;99.90;;;;;;5095031;28;20449;-78
2023/12/19 03:43:34;;;;;;;;;;;4.70;99.90;;;;;;5078245;28;19959;-78
2023/12/19 03:46:01;;;;;;;;;;;4.70;99.90;;;;;;5076526;28;20336;-81
2023/12/19 03:48:27;;;;;;;;;;;4.70;99.90;;;;;;5094605;28;19973;-78
2023/12/19 03:50:52;;;;;;;;;;;4.70;99.90;;;;;;5079598;28;19962;-80
2023/12/19 03:53:18;;;;;;;;;;;4.80;99.90;;;;;;5076396;28;19908;-81
2023/12/19 03:55:43;;;;;;;;;;;4.80;99.90;;;;;;5074257;28;19931;-79
2023/12/19 03:58:09;;;;;;;;;;;4.80;99.90;;;;;;5056304;28;19915;-80
2023/12/19 04:00:34;;;;;;;;;;;4.80;99.90;;;;;;5074068;28;19916;-79
2023/12/19 04:03:00;;;;;;;;;;;4.80;99.90;;;;;;5057868;28;19912;-80
2023/12/19 04:05:25;;;;;;;;;;;4.80;99.90;;;;;;5072724;28;19920;-80
2023/12/19 04:07:51;;;;;;;;;;;4.80;99.90;;;;;;5059355;28;19908;-80
2023/12/19 04:10:16;;;;;;;;;;;4.80;99.90;;;;;;5057299;28;19912;-80
2023/12/19 04:12:45;;;;;;;;;;;4.80;99.90;;;;;;5073920;28;20335;-80
2023/12/19 04:15:10;;;;;;;;;;;4.80;99.90;;;;;;5066573;28;19901;-79
2023/12/19 04:17:35;;;;;;;;;;;4.80;99.90;;;;;;5055466;28;20390;-77
2023/12/19 04:20:03;;;;;;;;;;;4.80;99.90;;;;;;5054192;28;19916;-78
2023/12/19 04:22:30;;;;;;;;;;;4.80;99.90;;;;;;5060252;28;19967;-80
2023/12/19 04:24:55;;;;;;;;;;;4.80;99.90;;;;;;5060740;28;19968;-80
2023/12/19 04:27:21;;;;;;;;;;;4.80;99.90;;;;;;5049606;28;19924;-78
2023/12/19 04:29:46;;;;;;;;;;;4.80;99.90;;;;;;5065280;28;19959;-80
2023/12/19 04:32:15;;;;;;;;;;;4.80;99.90;;;;;;5050370;28;20000;-80
2023/12/19 04:34:41;;;;;;;;;;;4.90;99.90;;;;;;5066990;28;19913;-81
2023/12/19 04:37:06;;;;;;;;;;;4.80;99.90;;;;;;5095882;28;19962;-80
2023/12/19 04:39:34;;;;;;;;;;;4.90;99.90;;;;;;5093184;28;19912;-80
2023/12/19 04:42:00;;;;;;;;;;;4.90;99.90;;;;;;5086236;28;19903;-79
2023/12/19 04:44:25;;;;;;;;;;;4.90;99.90;;;;;;5096704;28;19920;-80
2023/12/19 04:46:51;;;;;;;;;;;4.90;99.90;;;;;;5094064;28;20289;-78
2023/12/19 04:49:16;;;;;;;;;;;4.90;99.90;;;;;;5077394;28;19912;-80
2023/12/19 04:51:42;;;;;;;;;;;4.90;99.90;;;;;;5093351;28;19957;-77
2023/12/19 04:54:08;;;;;;;;;;;4.90;99.90;;;;;;5075714;28;19961;-80
2023/12/19 04:56:35;;;;;;;;;;;4.90;99.90;;;;;;5076979;28;19913;-80
2023/12/19 04:59:01;;;;;;;;;;;4.80;99.90;;;;;;5055396;28;19912;-81
2023/12/19 05:01:27;;;;;;;;;;;4.90;99.90;;;;;;5073512;28;20379;-77
2023/12/19 05:03:52;;;;;;;;;;;4.90;99.90;;;;;;5085869;28;20401;-80
2023/12/19 05:06:18;;;;;;;;;;;4.80;99.90;;;;;;5059293;28;19913;-78
2023/12/19 05:08:45;;;;;;;;;;;4.80;99.90;;;;;;5065492;28;20338;-78
2023/12/19 05:11:10;;;;;;;;;;;4.90;99.90;;;;;;5049342;28;20267;-80
2023/12/19 05:13:36;;;;;;;;;;;4.80;99.90;;;;;;5055400;28;19915;-81
2023/12/19 05:16:11;;;;;;;;;;;4.80;99.90;;;;;;5083048;28;19897;-78
2023/12/19 05:18:37;;;;;;;;;;;4.80;99.90;;;;;;5054809;28;19954;-77
2023/12/19 05:21:03;;;;;;;;;;;4.80;99.90;;;;;;5039641;28;20008;-78
2023/12/19 05:23:28;;;;;;;;;;;4.80;99.90;;;;;;5052254;28;19897;-81
2023/12/19 05:25:53;;;;;;;;;;;4.80;99.90;;;;;;5045588;28;19971;-80
2023/12/19 05:28:19;;;;;;;;;;;4.80;99.90;;;;;;5076358;28;19912;-81
2023/12/19 05:30:45;;;;;;;;;;;4.80;99.90;;;;;;5084510;28;20311;-80
2023/12/19 05:33:10;;;;;;;;;;;4.80;99.90;;;;;;5048874;28;20290;-80
2023/12/19 05:35:36;;;;;;;;;;;4.80;99.90;;;;;;5065907;28;19916;-80
2023/12/19 05:38:01;;;;;;;;;;;4.80;99.90;;;;;;5103256;28;19912;-78
2023/12/19 05:40:27;;;;;;;;;;;4.80;99.90;;;;;;5097093;28;19908;-80
2023/12/19 05:42:56;;;;;;;;;;;4.70;99.90;;;;;;5098763;28;20472;-80
2023/12/19 05:45:24;;;;;;;;;;;4.70;99.90;;;;;;5078917;28;19959;-81
2023/12/19 05:47:50;;;;;;;;;;;4.70;99.90;;;;;;5097193;28;19915;-80
2023/12/19 05:50:15;;;;;;;;;;;4.70;99.90;;;;;;5090464;28;19896;-80
2023/12/19 05:52:41;;;;;;;;;;;4.70;99.90;;;;;;5078482;28;19939;-80
2023/12/19 05:55:06;;;;;;;;;;;4.70;99.90;;;;;;5078725;28;19967;-80
2023/12/19 05:57:32;;;;;;;;;;;4.70;99.90;;;;;;5064206;28;19916;-80
2023/12/19 05:59:59;;;;;;;;;;;4.70;99.90;;;;;;5058610;28;19931;-80
2023/12/19 06:02:25;;;;;;;;;;;4.70;99.90;;;;;;5058907;28;19912;-78
2023/12/19 06:04:50;;;;;;;;;;;4.70;99.90;;;;;;5061264;28;19928;-77
2023/12/19 06:07:16;;;;;;;;;;;4.70;99.90;;;;;;5058374;28;20334;-78
2023/12/19 06:09:42;;;;;;;;;;;4.70;99.90;;;;;;5059841;28;19917;-80
2023/12/19 06:12:07;;;;;;;;;;;4.70;99.90;;;;;;5058351;28;19913;-80
2023/12/19 06:14:36;;;;;;;;;;;4.70;99.90;;;;;;5058321;28;19909;-78
2023/12/19 06:17:02;;;;;;;;;;;4.80;99.90;;;;;;5077185;28;19919;-80
2023/12/19 06:19:27;;;;;;;;;;;4.70;99.90;;;;;;5064212;28;19912;-80
2023/12/19 06:21:53;;;;;;;;;;;4.70;99.90;;;;;;5076024;28;19947;-81
2023/12/19 06:24:18;;;;;;;;;;;4.70;99.90;;;;;;5065937;28;19920;-78
2023/12/19 06:26:45;;;;;;;;;;;4.70;99.90;;;;;;5064845;28;19970;-78
2023/12/19 06:29:10;;;;;;;;;;;4.70;99.90;;;;;;5063627;28;19919;-78
2023/12/19 06:31:43;;;;;;;;;;;4.70;99.90;;;;;;5061639;28;19928;-80
2023/12/19 06:34:09;;;;;;;;;;;4.70;99.90;;;;;;5059529;28;19916;-80
2023/12/19 06:36:37;;;;;;;;;;;4.80;99.90;;;;;;5065510;28;19961;-77
2023/12/19 06:39:03;;;;;;;;;;;4.70;99.90;;;;;;5065360;28;20374;-80
2023/12/19 06:41:28;;;;;;;;;;;4.70;99.90;;;;;;5057491;28;19915;-78
2023/12/19 06:43:54;;;;;;;;;;;4.70;99.90;;;;;;5057305;28;19915;-80
2023/12/19 06:46:20;;;;;;;;;;;4.80;99.90;;;;;;5067249;28;20456;-80
2023/12/19 06:48:46;;;;;;;;;;;4.70;99.90;;;;;;5057289;28;19998;-80
2023/12/19 06:51:24;;;;;;;;;;;4.70;99.90;;;;;;5057316;28;19939;-80
2023/12/19 06:53:50;;;;;;;;;;;4.70;99.90;;;;;;5084834;28;19962;-80
2023/12/19 06:56:16;;;;;;;;;;;4.80;99.90;;;;;;5080360;28;19909;-79
2023/12/19 06:58:42;;;;;;;;;;;4.70;99.90;;;;;;5066843;28;19912;-80
2023/12/19 07:01:07;;;;;;;;;;;4.70;99.90;;;;;;5064772;28;20349;-80
2023/12/19 07:03:33;;;;;;;;;;;4.80;99.90;;;;;;5043794;28;19913;-78
2023/12/19 07:05:58;;;;;;;;;;;4.80;99.90;;;;;;5051917;28;20375;-78
2023/12/19 07:08:24;;;;;;;;;;;4.80;99.90;;;;;;5077473;28;20394;-79
2023/12/19 07:10:51;;;;;;;;;;;4.80;99.90;;;;;;5056762;28;19908;-80
2023/12/19 07:13:17;;;;;;;;;;;4.80;99.90;;;;;;5052157;28;19917;-78
2023/12/19 07:15:43;;;;;;;;;;;4.80;99.90;;;;;;5054838;28;19912;-78
2023/12/19 07:18:08;;;;;;;;;;;4.80;99.90;;;;;;5056744;28;19917;-80
2023/12/19 07:20:34;;;;;;;;;;;4.80;99.90;;;;;;5057142;28;20387;-80
2023/12/19 07:22:59;;;;;;;;;;;4.90;99.90;;;;;;5044040;28;19919;-78
2023/12/19 07:25:26;;;;;;;;;;;4.80;99.90;;;;;;5066483;28;19924;-80
2023/12/19 07:27:51;;;;;;;;;;;4.90;99.90;;;;;;5063661;28;19921;-78
2023/12/19 07:30:17;;;;;;;;;;;4.90;99.90;;;;;;5054409;28;19954;-78
2023/12/19 07:32:42;;;;;;;;;;;4.90;99.90;;;;;;5046679;28;19917;-80
2023/12/19 07:35:09;;;;;;;;;;;4.90;99.90;;;;;;5037602;28;19963;-80
2023/12/19 07:37:36;;;;;;;;;;;4.90;99.90;;;;;;5049110;28;20383;-78
2023/12/19 07:40:02;;;;;;;;;;;4.90;99.90;;;;;;5040055;28;19917;-80
2023/12/19 07:42:27;;;;;;;;;;;5.00;99.90;;;;;;5061335;28;19929;-80
2023/12/19 07:44:53;;;;;;;;;;;4.90;99.90;;;;;;5053522;28;19913;-79
2023/12/19 07:47:18;;;;;;;;;;;4.90;99.90;;;;;;5042246;28;19920;-80
2023/12/19 07:49:44;;;;;;;;;;;5.00;99.90;;;;;;5035497;28;19917;-79
2023/12/19 07:52:09;;;;;;;;;;;5.00;99.90;;;;;;5032599;28;19913;-78
2023/12/19 07:54:36;;;;;;;;;;;5.00;99.90;;;;;;5040417;28;19924;-79
2023/12/19 07:57:01;;;;;;;;;;;5.00;99.90;;;;;;5065572;28;19908;-79
2023/12/19 07:59:27;;;;;;;;;;;5.10;99.90;;;;;;5019277;28;19921;-78
2023/12/19 08:01:53;;;;;;;;;;;5.10;99.90;;;;;;5048974;28;20391;-79
2023/12/19 08:04:18;;;;;;;;;;;5.10;99.90;;;;;;5050526;28;19916;-79
2023/12/19 08:06:44;;;;;;;;;;;5.10;99.90;;;;;;5033431;28;20306;-78
2023/12/19 08:09:11;;;;;;;;;;;5.10;99.90;;;;;;5054361;28;20024;-80
2023/12/19 08:11:37;;;;;;;;;;;5.10;99.90;;;;;;5053164;28;19913;-80
2023/12/19 08:14:02;;;;;;;;;;;5.10;99.90;;;;;;5049043;28;19946;-79
2023/12/19 08:16:28;;;;;;;;;;;5.10;99.90;;;;;;5035015;28;19917;-79
2023/12/19 08:18:53;;;;;;;;;;;5.20;99.90;;;;;;5046390;28;20394;-79
2023/12/19 08:21:19;;;;;;;;;;;5.20;99.90;;;;;;5046699;28;19959;-79
2023/12/19 08:23:46;;;;;;;;;;;5.20;99.90;;;;;;5040256;28;19928;-79
2023/12/19 08:26:12;;;;;;;;;;;5.20;99.90;;;;;;5024860;28;20422;-79
2023/12/19 08:28:37;;;;;;;;;;;5.20;99.90;;;;;;5046319;28;19913;-79
2023/12/19 08:31:03;;;;;;;;;;;5.30;99.90;;;;;;5036064;28;19921;-78
2023/12/19 08:33:29;;;;;;;;;;;5.30;99.90;;;;;;5046001;28;19913;-79
2023/12/19 08:35:54;;;;;;;;;;;5.30;99.90;;;;;;5048943;28;20536;-79
2023/12/19 08:38:20;;;;;;;;;;;5.30;99.90;;;;;;5047657;28;19967;-80
2023/12/19 08:40:45;;;;;;;;;;;5.30;99.90;;;;;;5044645;28;20383;-80
2023/12/19 08:43:11;;;;;;;;;;;5.30;99.90;;;;;;5044500;28;19913;-79
2023/12/19 08:45:36;;;;;;;;;;;5.40;99.90;;;;;;5049680;28;19936;-79
2023/12/19 08:48:04;;;;;;;;;;;5.40;99.90;;;;;;5032407;28;19921;-78
2023/12/19 08:50:30;;;;;;;;;;;5.40;99.90;;;;;;5043594;28;19913;-77
2023/12/19 08:52:56;;;;;;;;;;;5.40;99.90;;;;;;5049178;28;19948;-79
2023/12/19 08:55:22;;;;;;;;;;;5.40;99.90;;;;;;5048816;28;19951;-78
2023/12/19 08:57:48;;;;;;;;;;;5.40;99.90;;;;;;5037497;28;19919;-78
2023/12/19 09:00:19;;;;;;;;;;;5.50;99.90;;;;;;5043450;28;19909;-80
2023/12/19 09:02:46;;;;;;;;;;;5.50;99.90;;;;;;5050357;28;20809;-80
2023/12/19 09:05:12;;;;;;;;;;;5.50;99.90;;;;;;5049767;28;19916;-80
2023/12/19 09:07:38;;;;;;;;;;;5.60;99.90;;;;;;5047737;28;19919;-79
2023/12/19 09:10:04;;;;;;;;;;;5.60;99.90;;;;;;5047866;28;20011;-79
2023/12/19 09:12:29;;;;;;;;;;;5.70;99.90;;;;;;5042954;28;19920;-80
2023/12/19 09:14:55;;;;;;;;;;;5.70;99.90;;;;;;5048469;28;19921;-80
2023/12/19 09:17:20;;;;;;;;;;;5.70;99.90;;;;;;5045792;28;19920;-80
2023/12/19 09:19:46;;;;;;;;;;;5.70;99.90;;;;;;5048702;28;20015;-79
2023/12/19 09:22:11;;;;;;;;;;;5.70;99.90;;;;;;5039287;28;19995;-80
2023/12/19 09:24:37;;;;;;;;;;;5.80;99.90;;;;;;5037530;28;19917;-79
2023/12/19 09:27:02;;;;;;;;;;;5.80;99.90;;;;;;5038165;28;19921;-81
2023/12/19 09:29:28;;;;;;;;;;;5.80;99.90;;;;;;5037712;28;20376;-80
2023/12/19 09:31:54;;;;;;;;;;;5.90;99.90;;;;;;5042998;28;19944;-80
2023/12/19 09:34:20;;;;;;;;;;;5.90;99.90;;;;;;5050268;28;19912;-82
2023/12/19 09:36:45;;;;;;;;;;;5.80;99.90;;;;;;5038769;28;19967;-81
2023/12/19 09:39:14;;;;;;;;;;;5.90;99.90;;;;;;5039166;28;19913;-81
2023/12/19 09:41:41;;;;;;;;;;;5.90;99.90;;;;;;5040972;28;19909;-81
2023/12/19 09:44:06;;;;;;;;;;;5.90;99.90;;;;;;5050590;28;20391;-80
2023/12/19 09:46:33;;;;;;;;;;;5.90;99.90;;;;;;5043824;28;19923;-80
2023/12/19 09:49:00;;;;;;;;;;;6.00;99.90;;;;;;5047096;28;19919;-80
2023/12/19 09:51:34;;;;;;;;;;;6.10;99.90;;;;;;5041542;28;19916;-81
2023/12/19 09:54:03;;;;;;;;;;;6.10;99.90;;;;;;5051382;28;19920;-80
2023/12/19 09:56:28;;;;;;;;;;;6.10;99.90;;;;;;5051953;28;19958;-81
2023/12/19 09:59:00;;;;;;;;;;;6.10;99.90;;;;;;5046278;28;19941;-80
2023/12/19 10:01:25;;;;;;;;;;;6.10;99.90;;;;;;5043207;28;20353;-82
2023/12/19 10:03:55;;;;;;;;;;;6.10;99.90;;;;;;5050413;28;19912;-81
2023/12/19 10:06:24;;;;;;;;;;;6.20;99.90;;;;;;5035584;28;20367;-81
2023/12/19 10:08:51;;;;;;;;;;;6.10;99.90;;;;;;5047910;28;19966;-78
2023/12/19 10:11:24;;;;;;;;;;;6.10;99.90;;;;;;5050040;28;20287;-79
2023/12/19 10:13:50;;;;;;;;;;;6.10;99.90;;;;;;5035080;28;20360;-80
2023/12/19 10:16:19;;;;;;;;;;;6.10;99.90;;;;;;5043311;28;19952;-80
2023/12/19 10:18:52;;;;;;;;;;;6.10;99.90;;;;;;5053331;28;20031;-80
2023/12/19 10:21:21;;;;;;;;;;;6.20;99.90;;;;;;5043738;28;19913;-80
2023/12/19 10:23:46;;;;;;;;;;;6.30;99.90;;;;;;5051739;28;19984;-82
2023/12/19 10:26:12;;;;;;;;;;;6.40;99.90;;;;;;5049880;28;20291;-81
2023/12/19 10:28:38;;;;;;;;;;;6.50;99.90;;;;;;5053409;28;19917;-81
2023/12/19 10:31:06;;;;;;;;;;;6.50;99.90;;;;;;5049390;28;19920;-82
2023/12/19 10:33:45;;;;;;;;;;;6.50;99.90;;;;;;5040807;28;19924;-81
2023/12/19 10:36:28;;;;;;;;;;;6.60;99.90;;;;;;5054415;28;20371;-81
2023/12/19 10:38:54;;;;;;;;;;;6.60;99.90;;;;;;5049001;28;20508;-81
2023/12/19 10:41:33;;;;;;;;;;;6.60;99.90;;;;;;5040684;28;20354;-81
2023/12/19 10:43:59;;;;;;;;;;;6.50;99.90;;;;;;5038063;28;19945;-81
2023/12/19 10:46:28;;;;;;;;;;;6.50;99.90;;;;;;5047050;28;19921;-82
2023/12/19 10:48:55;;;;;;;;;;;6.50;99.90;;;;;;5054082;28;19963;-82
2023/12/19 10:51:27;;;;;;;;;;;6.50;99.90;;;;;;5048904;28;20272;-81
2023/12/19 10:53:58;;;;;;;;;;;6.50;99.90;;;;;;5036062;28;19995;-81
2023/12/19 10:56:25;;;;;;;;;;;6.60;99.90;;;;;;5048839;28;19921;-81
2023/12/19 10:58:57;;;;;;;;;;;6.60;99.90;;;;;;5033041;28;19910;-81
2023/12/19 11:01:24;;;;;;;;;;;6.60;99.90;;;;;;5053969;28;19909;-81
2023/12/19 11:03:57;;;;;;;;;;;6.70;99.90;;;;;;5052181;28;19909;-80
2023/12/19 11:06:27;;;;;;;;;;;6.70;99.90;;;;;;5050775;28;19925;-79
2023/12/19 11:08:55;;;;;;;;;;;6.80;99.90;;;;;;5034033;28;19916;-80
2023/12/19 11:11:25;;;;;;;;;;;6.80;99.90;;;;;;5045674;28;19948;-80
2023/12/19 11:13:51;;;;;;;;;;;6.80;99.90;;;;;;5050078;28;19955;-78
2023/12/19 11:16:22;;;;;;;;;;;6.90;99.90;;;;;;5046703;28;19913;-79
2023/12/19 11:19:10;;;;;;;;;;;6.90;99.90;;;;;;5052913;28;19916;-80
2023/12/19 11:21:58;;;;;;;;;;;7.00;99.90;;;;;;5036829;28;19916;-81
2023/12/19 11:24:26;;;;;;;;;;;7.00;99.90;;;;;;5052797;28;19921;-79
2023/12/19 11:26:54;;;;;;;;;;;7.10;99.90;;;;;;5048534;28;19928;-78
2023/12/19 11:29:38;;;;;;;;;;;7.20;99.90;;;;;;5046569;28;19913;-78
2023/12/19 11:32:24;;;;;;;;;;;7.30;99.90;;;;;;5026387;28;20380;-83
2023/12/19 11:34:49;;;;;;;;;;;7.30;99.90;;;;;;5052398;28;19971;-79
2023/12/19 11:37:19;;;;;;;;;;;7.30;99.90;;;;;;5034783;28;19916;-78
2023/12/19 11:39:45;;;;;;;;;;;7.30;99.90;;;;;;5031601;28;20016;-78
2023/12/19 11:42:30;;;;;;;;;;;7.30;99.90;;;;;;5039539;28;20387;-78
2023/12/19 11:44:56;;;;;;;;;;;7.40;99.90;;;;;;5034766;28;19964;-79
2023/12/19 11:47:21;;;;;;;;;;;7.40;99.90;;;;;;5039907;28;20403;-78
2023/12/19 11:49:47;;;;;;;;;;;7.60;99.90;;;;;;5032133;28;19909;-78
2023/12/19 11:52:32;;;;;;;;;;;7.60;99.90;;;;;;5048544;28;19935;-80
2023/12/19 11:54:57;;;;;;;;;;;7.70;99.90;;;;;;5047147;28;19909;-78
2023/12/19 11:57:23;;;;;;;;;;;7.70;99.90;;;;;;5035532;28;20387;-78
2023/12/19 11:59:50;;;;;;;;;;;7.70;99.90;;;;;;5049717;28;19921;-78
2023/12/19 12:02:32;;;;;;;;;;;7.70;99.90;;;;;;5054298;28;19917;-78
2023/12/19 12:05:12;;;;;;;;;;;7.70;99.90;;;;;;5039009;28;19928;-79
2023/12/19 12:07:42;;;;;;;;;;;7.60;99.90;;;;;;5051382;28;19953;-80
2023/12/19 12:10:09;;;;;;;;;;;7.60;99.90;;;;;;5034596;28;19920;-79
2023/12/19 12:12:35;;;;;;;;;;;7.60;99.90;;;;;;5034406;28;19917;-80
2023/12/19 12:15:07;;;;;;;;;;;7.60;99.90;;;;;;5043053;28;19975;-79
2023/12/19 12:17:36;;;;;;;;;;;7.60;99.90;;;;;;5024190;28;19988;-79
2023/12/19 12:20:03;;;;;;;;;;;7.60;99.90;;;;;;5050109;28;19913;-79
2023/12/19 12:22:30;;;;;;;;;;;7.50;99.90;;;;;;5039931;28;19913;-78
2023/12/19 12:24:55;;;;;;;;;;;7.60;99.90;;;;;;5047101;28;19943;-78
2023/12/19 12:27:21;;;;;;;;;;;7.60;99.90;;;;;;5038829;28;20374;-79
2023/12/19 12:29:46;;;;;;;;;;;7.60;99.90;;;;;;5031908;28;19975;-80
2023/12/19 12:32:12;;;;;;;;;;;7.60;99.90;;;;;;5061675;28;19924;-79
2023/12/19 12:34:38;;;;;;;;;;;7.60;99.90;;;;;;5043354;28;19976;-80
2023/12/19 12:37:04;;;;;;;;;;;7.60;99.90;;;;;;5063833;28;19919;-79
2023/12/19 12:39:30;;;;;;;;;;;7.70;99.90;;;;;;5064113;28;20370;-81
2023/12/19 12:42:06;;;;;;;;;;;7.70;99.90;;;;;;5062560;28;19920;-81
2023/12/19 12:44:32;;;;;;;;;;;7.70;99.90;;;;;;5063399;28;19917;-80
2023/12/19 12:46:57;;;;;;;;;;;7.80;99.90;;;;;;5058892;28;19917;-79
2023/12/19 12:49:23;;;;;;;;;;;7.80;99.90;;;;;;5051866;28;19925;-79
2023/12/19 12:51:54;;;;;;;;;;;7.80;99.90;;;;;;5036848;28;20432;-80
2023/12/19 12:54:20;;;;;;;;;;;7.90;99.90;;;;;;5056031;28;20006;-78
2023/12/19 12:56:46;;;;;;;;;;;8.00;99.90;;;;;;5066324;28;19999;-80
2023/12/19 12:59:13;;;;;;;;;;;8.00;99.90;;;;;;5052169;28;19931;-81
2023/12/19 13:01:39;;;;;;;;;;;8.10;99.90;;;;;;5038543;28;19917;-79
2023/12/19 13:04:07;;;;;;;;;;;8.10;99.90;;;;;;5046934;28;19934;-79
2023/12/19 13:06:37;;;;;;;;;;;8.10;99.90;;;;;;5068201;28;19920;-80
2023/12/19 13:09:04;;;;;;;;;;;8.10;99.90;;;;;;5047367;28;19913;-79
2023/12/19 13:11:30;;;;;;;;;;;8.20;99.90;;;;;;5065384;28;19942;-81
2023/12/19 13:13:55;;;;;;;;;;;8.20;99.90;;;;;;5056875;28;19920;-81
2023/12/19 13:16:21;;;;;;;;;;;8.30;99.90;;;;;;5070418;28;19912;-81
2023/12/19 13:18:47;;;;;;;;;;;8.40;99.90;;;;;;5041864;28;19951;-81
2023/12/19 13:21:13;;;;;;;;;;;8.50;99.90;;;;;;5034728;28;19912;-78
2023/12/19 13:23:40;;;;;;;;;;;8.60;99.90;;;;;;5065152;28;19960;-79
2023/12/19 13:26:05;;;;;;;;;;;8.70;99.90;;;;;;5057530;28;20699;-81
2023/12/19 13:28:31;;;;;;;;;;;8.80;99.90;;;;;;5065276;28;19912;-81
2023/12/19 13:30:56;;;;;;;;;;;8.80;99.90;;;;;;5045626;28;19920;-79
2023/12/19 13:33:22;;;;;;;;;;;8.70;99.90;;;;;;5065228;28;19912;-78
2023/12/19 13:35:48;;;;;;;;;;;8.80;99.90;;;;;;5034468;28;19917;-79
2023/12/19 13:38:15;;;;;;;;;;;8.90;99.90;;;;;;5042692;28;19928;-78
2023/12/19 13:40:44;;;;;;;;;;;9.00;99.90;;;;;;5047608;28;20007;-81
2023/12/19 13:43:10;;;;;;;;;;;9.00;99.90;;;;;;5051638;28;19952;-78
2023/12/19 13:45:36;;;;;;;;;;;9.00;99.90;;;;;;5038745;28;19979;-80
2023/12/19 13:48:02;;;;;;;;;;;9.10;99.90;;;;;;5050338;28;20387;-78
2023/12/19 13:50:28;;;;;;;;;;;9.00;99.90;;;;;;5071664;28;19919;-78
2023/12/19 13:52:53;;;;;;;;;;;9.00;99.90;;;;;;5069525;28;19916;-81
2023/12/19 13:55:19;;;;;;;;;;;9.00;99.90;;;;;;5073391;28;19912;-78
2023/12/19 13:57:47;;;;;;;;;;;9.00;99.90;;;;;;5061629;28;20287;-81
2023/12/19 14:00:17;;;;;;;;;;;9.00;99.90;;;;;;5070734;28;19923;-79
2023/12/19 14:02:43;;;;;;;;;;;8.90;99.90;;;;;;5053239;28;19999;-78
2023/12/19 14:05:09;;;;;;;;;;;8.90;99.90;;;;;;5073838;28;19920;-79
2023/12/19 14:07:35;;;;;;;;;;;8.90;99.90;;;;;;5056985;28;19974;-79
2023/12/19 14:10:07;;;;;;;;;;;9.00;99.90;;;;;;5044194;28;19912;-81
2023/12/19 14:12:33;;;;;;;;;;;9.00;99.90;;;;;;5054195;28;19981;-78
2023/12/19 14:14:59;;;;;;;;;;;9.00;99.90;;;;;;5053376;28;19969;-81
2023/12/19 14:17:24;;;;;;;;;;;9.00;99.90;;;;;;5053401;28;19912;-82
2023/12/19 14:19:50;;;;;;;;;;;9.00;99.90;;;;;;5073229;28;20283;-79
2023/12/19 14:22:16;;;;;;;;;;;9.00;99.90;;;;;;5039255;28;19927;-79
2023/12/19 14:24:42;;;;;;;;;;;9.00;99.90;;;;;;5066569;28;19943;-79
2023/12/19 14:27:08;;;;;;;;;;;9.10;99.90;;;;;;5053289;28;20732;-80
2023/12/19 14:29:34;;;;;;;;;;;9.20;99.90;;;;;;5059675;28;20279;-79